Broadus, Montana
Current Conditions -  °F | °C
As of 8:53 PM on Thursday 18 Dec 2014 (Local Time) from KMLS Reporting Station
Overcast Overcast  
Wind Chill: 22°   Ceiling: 8500
Heat Index: 29°   Visibility: 10mi
Dew Point: 24°   Wind: 7mph
Humidity: 82%   Direction: 170°S
Pressure: 29.95"   Gusts: NA
Location:  45.44°N, 105.41°W
Report Text: KMLS 190353Z AUTO 17006KT 10SM BKN085 OVC110 M02/M04 A2995 RMK AO2 SLP170 T10171044
Loading
Personal Weather Stations






























Interactive Weather Map New forecast layout! Learn more

10-Day Weather Forecast

Advertisements
Track Severe Weather on mobile